sensor_id;sensor_type;location;lat;lon;timestamp;P1;durP1;ratioP1;P2;durP2;ratioP2
50651;SDS011;61429;52.086;5.240;2022-07-05T00:00:43;3.5;;;3.2;;
50651;SDS011;61429;52.086;5.240;2022-07-05T00:02:30;3.3;;;3.0;;
50651;SDS011;61429;52.086;5.240;2022-07-05T00:04:17;4.41;;;3.2;;
50651;SDS011;61429;52.086;5.240;2022-07-05T00:07:51;5.2;;;3.5;;
50651;SDS011;61429;52.086;5.240;2022-07-05T00:09:39;4.1;;;3.5;;
50651;SDS011;61429;52.086;5.240;2022-07-05T00:11:25;4.2;;;3.8;;
50651;SDS011;61429;52.086;5.240;2022-07-05T00:13:12;6.1;;;3.5;;
50651;SDS011;61429;52.086;5.240;2022-07-05T00:15:00;4.2;;;3.4;;
50651;SDS011;61429;52.086;5.240;2022-07-05T00:16:46;6.2;;;4.1;;
50651;SDS011;61429;52.086;5.240;2022-07-05T00:20:21;3.8;;;3.2;;
50651;SDS011;61429;52.086;5.240;2022-07-05T00:22:08;4.3;;;3.5;;
50651;SDS011;61429;52.086;5.240;2022-07-05T00:23:55;4.3;;;3.9;;
50651;SDS011;61429;52.086;5.240;2022-07-05T00:25:41;4.7;;;3.7;;
50651;SDS011;61429;52.086;5.240;2022-07-05T00:27:27;4.2;;;3.8;;
50651;SDS011;61429;52.086;5.240;2022-07-05T00:29:14;5.7;;;3.6;;
50651;SDS011;61429;52.086;5.240;2022-07-05T00:32:47;4.1;;;3.6;;
50651;SDS011;61429;52.086;5.240;2022-07-05T00:34:34;4.8;;;3.8;;
50651;SDS011;61429;52.086;5.240;2022-07-05T00:36:20;3.9;;;3.5;;
50651;SDS011;61429;52.086;5.240;2022-07-05T00:38:07;3.8;;;3.5;;
50651;SDS011;61429;52.086;5.240;2022-07-05T00:39:54;5.2;;;3.8;;
50651;SDS011;61429;52.086;5.240;2022-07-05T00:43:27;4.41;;;3.9;;
50651;SDS011;61429;52.086;5.240;2022-07-05T00:45:14;3.8;;;3.4;;
50651;SDS011;61429;52.086;5.240;2022-07-05T00:47:03;4.0;;;3.4;;
50651;SDS011;61429;52.086;5.240;2022-07-05T00:48:51;3.8;;;3.3;;
50651;SDS011;61429;52.086;5.240;2022-07-05T00:50:38;3.5;;;3.2;;
50651;SDS011;61429;52.086;5.240;2022-07-05T00:52:29;4.41;;;3.4;;
50651;SDS011;61429;52.086;5.240;2022-07-05T00:56:03;3.4;;;3.1;;
50651;SDS011;61429;52.086;5.240;2022-07-05T00:57:50;4.61;;;3.4;;
50651;SDS011;61429;52.086;5.240;2022-07-05T00:59:38;3.8;;;3.4;;
50651;SDS011;61429;52.086;5.240;2022-07-05T01:01:24;4.2;;;3.2;;
50651;SDS011;61429;52.086;5.240;2022-07-05T01:03:13;3.9;;;3.6;;
50651;SDS011;61429;52.086;5.240;2022-07-05T01:05:00;3.5;;;3.1;;
50651;SDS011;61429;52.086;5.240;2022-07-05T01:08:37;3.4;;;3.1;;
50651;SDS011;61429;52.086;5.240;2022-07-05T01:10:26;4.8;;;3.7;;
50651;SDS011;61429;52.086;5.240;2022-07-05T01:12:13;4.61;;;3.6;;
50651;SDS011;61429;52.086;5.240;2022-07-05T01:14:02;4.3;;;3.8;;
50651;SDS011;61429;52.086;5.240;2022-07-05T01:15:48;4.2;;;3.8;;
50651;SDS011;61429;52.086;5.240;2022-07-05T01:17:36;6.2;;;4.3;;
50651;SDS011;61429;52.086;5.240;2022-07-05T01:21:10;4.7;;;4.2;;
50651;SDS011;61429;52.086;5.240;2022-07-05T01:23:00;4.7;;;4.3;;
50651;SDS011;61429;52.086;5.240;2022-07-05T01:24:48;5.4;;;4.91;;
50651;SDS011;61429;52.086;5.240;2022-07-05T01:26:36;4.91;;;4.5;;
50651;SDS011;61429;52.086;5.240;2022-07-05T01:28:24;5.11;;;4.61;;
50651;SDS011;61429;52.086;5.240;2022-07-05T01:30:11;5.0;;;4.5;;
50651;SDS011;61429;52.086;5.240;2022-07-05T01:33:44;8.0;;;4.3;;
50651;SDS011;61429;52.086;5.240;2022-07-05T01:35:31;5.6;;;4.3;;
50651;SDS011;61429;52.086;5.240;2022-07-05T01:37:17;5.0;;;4.5;;
50651;SDS011;61429;52.086;5.240;2022-07-05T01:39:04;5.11;;;4.61;;
50651;SDS011;61429;52.086;5.240;2022-07-05T01:40:53;4.61;;;4.2;;
50651;SDS011;61429;52.086;5.240;2022-07-05T01:42:39;4.5;;;4.1;;
50651;SDS011;61429;52.086;5.240;2022-07-05T01:46:13;5.11;;;4.41;;
50651;SDS011;61429;52.086;5.240;2022-07-05T01:48:04;5.7;;;4.2;;
50651;SDS011;61429;52.086;5.240;2022-07-05T01:49:53;4.7;;;4.2;;
50651;SDS011;61429;52.086;5.240;2022-07-05T01:51:45;4.3;;;3.9;;
50651;SDS011;61429;52.086;5.240;2022-07-05T01:53:36;5.7;;;4.8;;
50651;SDS011;61429;52.086;5.240;2022-07-05T01:55:26;5.8;;;5.2;;
50651;SDS011;61429;52.086;5.240;2022-07-05T01:57:13;5.11;;;4.7;;
50651;SDS011;61429;52.086;5.240;2022-07-05T02:00:48;6.5;;;5.9;;
50651;SDS011;61429;52.086;5.240;2022-07-05T02:02:39;5.8;;;5.2;;
50651;SDS011;61429;52.086;5.240;2022-07-05T02:04:27;5.3;;;4.8;;
50651;SDS011;61429;52.086;5.240;2022-07-05T02:06:14;5.9;;;5.3;;
50651;SDS011;61429;52.086;5.240;2022-07-05T02:08:01;5.8;;;5.3;;
50651;SDS011;61429;52.086;5.240;2022-07-05T02:09:47;7.9;;;5.9;;
50651;SDS011;61429;52.086;5.240;2022-07-05T02:13:21;6.3;;;5.5;;
50651;SDS011;61429;52.086;5.240;2022-07-05T02:15:08;6.9;;;5.2;;
50651;SDS011;61429;52.086;5.240;2022-07-05T02:16:54;6.2;;;5.5;;
50651;SDS011;61429;52.086;5.240;2022-07-05T02:18:41;8.2;;;7.4;;
50651;SDS011;61429;52.086;5.240;2022-07-05T02:20:27;6.7;;;6.0;;
50651;SDS011;61429;52.086;5.240;2022-07-05T02:22:14;6.4;;;5.8;;
50651;SDS011;61429;52.086;5.240;2022-07-05T02:25:46;4.7;;;4.1;;
50651;SDS011;61429;52.086;5.240;2022-07-05T02:27:32;4.41;;;4.0;;
50651;SDS011;61429;52.086;5.240;2022-07-05T02:29:19;4.7;;;4.2;;
50651;SDS011;61429;52.086;5.240;2022-07-05T02:31:05;4.0;;;3.6;;
50651;SDS011;61429;52.086;5.240;2022-07-05T02:32:51;3.6;;;3.3;;
50651;SDS011;61429;52.086;5.240;2022-07-05T02:36:24;4.41;;;3.5;;
50651;SDS011;61429;52.086;5.240;2022-07-05T02:38:11;4.2;;;3.5;;
50651;SDS011;61429;52.086;5.240;2022-07-05T02:39:58;4.3;;;3.9;;
50651;SDS011;61429;52.086;5.240;2022-07-05T02:41:44;5.4;;;4.1;;
50651;SDS011;61429;52.086;5.240;2022-07-05T02:43:30;4.61;;;4.2;;
50651;SDS011;61429;52.086;5.240;2022-07-05T02:45:17;5.0;;;4.3;;
50651;SDS011;61429;52.086;5.240;2022-07-05T02:48:51;5.4;;;4.1;;
50651;SDS011;61429;52.086;5.240;2022-07-05T02:50:38;4.5;;;4.1;;
50651;SDS011;61429;52.086;5.240;2022-07-05T02:52:24;5.6;;;4.61;;
50651;SDS011;61429;52.086;5.240;2022-07-05T02:54:11;4.3;;;3.9;;
50651;SDS011;61429;52.086;5.240;2022-07-05T02:55:57;3.9;;;3.5;;
50651;SDS011;61429;52.086;5.240;2022-07-05T02:57:44;4.41;;;3.7;;
50651;SDS011;61429;52.086;5.240;2022-07-05T03:01:18;4.91;;;3.7;;
50651;SDS011;61429;52.086;5.240;2022-07-05T03:03:05;4.61;;;3.8;;
50651;SDS011;61429;52.086;5.240;2022-07-05T03:04:51;4.3;;;3.9;;
50651;SDS011;61429;52.086;5.240;2022-07-05T03:06:38;5.0;;;3.7;;
50651;SDS011;61429;52.086;5.240;2022-07-05T03:11:58;4.61;;;3.9;;
50651;SDS011;61429;52.086;5.240;2022-07-05T03:13:44;4.7;;;4.3;;
50651;SDS011;61429;52.086;5.240;2022-07-05T03:15:30;4.5;;;4.1;;
50651;SDS011;61429;52.086;5.240;2022-07-05T03:17:17;4.7;;;4.3;;
50651;SDS011;61429;52.086;5.240;2022-07-05T03:19:04;5.8;;;4.1;;
50651;SDS011;61429;52.086;5.240;2022-07-05T03:20:51;5.5;;;4.5;;
50651;SDS011;61429;52.086;5.240;2022-07-05T03:24:24;4.7;;;4.3;;
50651;SDS011;61429;52.086;5.240;2022-07-05T03:26:11;4.8;;;4.1;;
50651;SDS011;61429;52.086;5.240;2022-07-05T03:27:57;4.2;;;3.8;;
50651;SDS011;61429;52.086;5.240;2022-07-05T03:29:44;4.5;;;4.2;;
50651;SDS011;61429;52.086;5.240;2022-07-05T03:31:31;5.3;;;4.8;;
50651;SDS011;61429;52.086;5.240;2022-07-05T03:35:04;5.7;;;5.11;;
50651;SDS011;61429;52.086;5.240;2022-07-05T03:36:51;4.5;;;4.0;;
50651;SDS011;61429;52.086;5.240;2022-07-05T03:38:38;4.61;;;4.2;;
50651;SDS011;61429;52.086;5.240;2022-07-05T03:40:24;4.91;;;4.41;;
50651;SDS011;61429;52.086;5.240;2022-07-05T03:42:10;5.3;;;4.8;;
50651;SDS011;61429;52.086;5.240;2022-07-05T03:43:56;4.91;;;4.41;;
50651;SDS011;61429;52.086;5.240;2022-07-05T03:47:30;4.61;;;4.2;;
50651;SDS011;61429;52.086;5.240;2022-07-05T03:49:17;6.0;;;5.4;;
50651;SDS011;61429;52.086;5.240;2022-07-05T03:51:04;5.3;;;4.8;;
50651;SDS011;61429;52.086;5.240;2022-07-05T03:52:50;5.4;;;4.91;;
50651;SDS011;61429;52.086;5.240;2022-07-05T03:54:36;5.6;;;5.11;;
50651;SDS011;61429;52.086;5.240;2022-07-05T03:56:23;5.6;;;4.61;;
50651;SDS011;61429;52.086;5.240;2022-07-05T03:59:57;5.8;;;4.41;;
50651;SDS011;61429;52.086;5.240;2022-07-05T04:01:43;5.0;;;4.61;;
50651;SDS011;61429;52.086;5.240;2022-07-05T04:03:30;5.5;;;5.0;;
50651;SDS011;61429;52.086;5.240;2022-07-05T04:05:17;5.2;;;4.7;;
50651;SDS011;61429;52.086;5.240;2022-07-05T04:07:04;5.2;;;4.7;;
50651;SDS011;61429;52.086;5.240;2022-07-05T04:10:37;4.91;;;4.41;;
50651;SDS011;61429;52.086;5.240;2022-07-05T04:12:23;4.7;;;4.2;;
50651;SDS011;61429;52.086;5.240;2022-07-05T04:14:09;3.8;;;3.5;;
50651;SDS011;61429;52.086;5.240;2022-07-05T04:15:56;4.2;;;3.8;;
50651;SDS011;61429;52.086;5.240;2022-07-05T04:17:46;3.9;;;3.6;;
50651;SDS011;61429;52.086;5.240;2022-07-05T04:19:34;4.0;;;3.7;;
50651;SDS011;61429;52.086;5.240;2022-07-05T04:23:08;4.41;;;4.0;;
50651;SDS011;61429;52.086;5.240;2022-07-05T04:25:26;4.8;;;4.41;;
50651;SDS011;61429;52.086;5.240;2022-07-05T04:27:13;5.3;;;4.2;;
50651;SDS011;61429;52.086;5.240;2022-07-05T04:29:00;4.61;;;3.9;;
50651;SDS011;61429;52.086;5.240;2022-07-05T04:30:46;4.8;;;4.41;;
50651;SDS011;61429;52.086;5.240;2022-07-05T04:32:33;6.0;;;5.2;;
50651;SDS011;61429;52.086;5.240;2022-07-05T04:34:20;6.2;;;5.6;;
50651;SDS011;61429;52.086;5.240;2022-07-05T04:36:07;7.5;;;5.9;;
50651;SDS011;61429;52.086;5.240;2022-07-05T04:39:39;7.3;;;6.6;;
50651;SDS011;61429;52.086;5.240;2022-07-05T04:41:26;7.6;;;6.9;;
50651;SDS011;61429;52.086;5.240;2022-07-05T04:43:12;8.6;;;7.6;;
50651;SDS011;61429;52.086;5.240;2022-07-05T04:45:00;7.6;;;6.9;;
50651;SDS011;61429;52.086;5.240;2022-07-05T04:46:47;7.6;;;6.9;;
50651;SDS011;61429;52.086;5.240;2022-07-05T04:50:19;8.1;;;7.3;;
50651;SDS011;61429;52.086;5.240;2022-07-05T04:52:05;8.71;;;7.2;;
50651;SDS011;61429;52.086;5.240;2022-07-05T04:53:52;9.0;;;8.1;;
50651;SDS011;61429;52.086;5.240;2022-07-05T04:55:39;9.31;;;8.4;;
50651;SDS011;61429;52.086;5.240;2022-07-05T04:57:25;9.1;;;8.31;;
50651;SDS011;61429;52.086;5.240;2022-07-05T04:59:12;8.9;;;8.1;;
50651;SDS011;61429;52.086;5.240;2022-07-05T05:02:47;8.6;;;7.8;;
50651;SDS011;61429;52.086;5.240;2022-07-05T05:04:34;7.3;;;6.6;;
50651;SDS011;61429;52.086;5.240;2022-07-05T05:06:21;8.71;;;7.9;;
50651;SDS011;61429;52.086;5.240;2022-07-05T05:08:07;9.1;;;8.31;;
50651;SDS011;61429;52.086;5.240;2022-07-05T05:09:53;8.6;;;7.5;;
50651;SDS011;61429;52.086;5.240;2022-07-05T05:11:40;9.71;;;8.71;;
50651;SDS011;61429;52.086;5.240;2022-07-05T05:15:14;8.9;;;8.1;;
50651;SDS011;61429;52.086;5.240;2022-07-05T05:17:00;9.31;;;8.4;;
50651;SDS011;61429;52.086;5.240;2022-07-05T05:18:47;8.2;;;7.4;;
50651;SDS011;61429;52.086;5.240;2022-07-05T05:20:33;7.8;;;7.1;;
50651;SDS011;61429;52.086;5.240;2022-07-05T05:22:19;9.5;;;8.6;;
50651;SDS011;61429;52.086;5.240;2022-07-05T05:25:52;11.0;;;9.81;;
50651;SDS011;61429;52.086;5.240;2022-07-05T05:27:40;7.3;;;6.7;;
50651;SDS011;61429;52.086;5.240;2022-07-05T05:29:28;9.6;;;8.71;;
50651;SDS011;61429;52.086;5.240;2022-07-05T05:31:15;11.5;;;9.81;;
50651;SDS011;61429;52.086;5.240;2022-07-05T05:33:01;10.9;;;9.81;;
50651;SDS011;61429;52.086;5.240;2022-07-05T05:34:47;11.2;;;10.21;;
50651;SDS011;61429;52.086;5.240;2022-07-05T05:38:21;11.6;;;10.4;;
50651;SDS011;61429;52.086;5.240;2022-07-05T05:40:08;11.1;;;10.1;;
50651;SDS011;61429;52.086;5.240;2022-07-05T05:41:56;12.6;;;11.4;;
50651;SDS011;61429;52.086;5.240;2022-07-05T05:43:43;12.2;;;11.1;;
50651;SDS011;61429;52.086;5.240;2022-07-05T05:45:29;13.9;;;12.5;;
50651;SDS011;61429;52.086;5.240;2022-07-05T05:47:16;13.2;;;12.0;;
50651;SDS011;61429;52.086;5.240;2022-07-05T05:50:49;13.0;;;11.7;;
50651;SDS011;61429;52.086;5.240;2022-07-05T05:52:37;13.4;;;12.1;;
50651;SDS011;61429;52.086;5.240;2022-07-05T05:54:23;13.4;;;12.1;;
50651;SDS011;61429;52.086;5.240;2022-07-05T05:56:10;13.2;;;12.1;;
50651;SDS011;61429;52.086;5.240;2022-07-05T05:58:09;14.4;;;13.1;;
50651;SDS011;61429;52.086;5.240;2022-07-05T05:59:56;15.3;;;13.8;;
50651;SDS011;61429;52.086;5.240;2022-07-05T06:03:29;14.4;;;13.0;;
50651;SDS011;61429;52.086;5.240;2022-07-05T06:05:15;15.1;;;13.8;;
50651;SDS011;61429;52.086;5.240;2022-07-05T06:07:03;16.9;;;15.3;;
50651;SDS011;61429;52.086;5.240;2022-07-05T06:08:49;17.0;;;15.3;;
50651;SDS011;61429;52.086;5.240;2022-07-05T06:10:36;17.3;;;15.6;;
50651;SDS011;61429;52.086;5.240;2022-07-05T06:12:23;16.8;;;15.2;;
50651;SDS011;61429;52.086;5.240;2022-07-05T06:15:55;17.91;;;16.2;;
50651;SDS011;61429;52.086;5.240;2022-07-05T06:17:42;18.11;;;16.4;;
50651;SDS011;61429;52.086;5.240;2022-07-05T06:19:28;17.41;;;15.8;;
50651;SDS011;61429;52.086;5.240;2022-07-05T06:21:14;15.9;;;14.5;;
50651;SDS011;61429;52.086;5.240;2022-07-05T06:23:01;16.9;;;15.3;;
50651;SDS011;61429;52.086;5.240;2022-07-05T06:26:36;16.2;;;14.6;;
50651;SDS011;61429;52.086;5.240;2022-07-05T06:28:22;15.7;;;14.1;;
50651;SDS011;61429;52.086;5.240;2022-07-05T06:30:10;16.0;;;13.6;;
50651;SDS011;61429;52.086;5.240;2022-07-05T06:32:00;15.1;;;13.7;;
50651;SDS011;61429;52.086;5.240;2022-07-05T06:33:47;16.2;;;14.6;;
50651;SDS011;61429;52.086;5.240;2022-07-05T06:35:33;16.8;;;13.9;;
50651;SDS011;61429;52.086;5.240;2022-07-05T06:39:06;15.4;;;14.0;;
50651;SDS011;61429;52.086;5.240;2022-07-05T06:40:53;15.7;;;14.2;;
50651;SDS011;61429;52.086;5.240;2022-07-05T06:42:39;14.2;;;12.9;;
50651;SDS011;61429;52.086;5.240;2022-07-05T06:44:27;13.5;;;11.9;;
50651;SDS011;61429;52.086;5.240;2022-07-05T06:46:13;14.4;;;13.1;;
50651;SDS011;61429;52.086;5.240;2022-07-05T06:47:59;13.8;;;12.4;;
50651;SDS011;61429;52.086;5.240;2022-07-05T06:51:34;13.2;;;11.8;;
50651;SDS011;61429;52.086;5.240;2022-07-05T06:53:20;14.7;;;13.3;;
50651;SDS011;61429;52.086;5.240;2022-07-05T06:55:07;13.0;;;11.7;;
50651;SDS011;61429;52.086;5.240;2022-07-05T06:56:55;14.1;;;12.7;;
50651;SDS011;61429;52.086;5.240;2022-07-05T06:58:41;12.7;;;11.3;;
50651;SDS011;61429;52.086;5.240;2022-07-05T07:00:27;11.6;;;10.5;;
50651;SDS011;61429;52.086;5.240;2022-07-05T07:04:01;11.4;;;10.3;;
50651;SDS011;61429;52.086;5.240;2022-07-05T07:05:48;9.31;;;8.31;;
50651;SDS011;61429;52.086;5.240;2022-07-05T07:10:36;8.6;;;7.2;;
50651;SDS011;61429;52.086;5.240;2022-07-05T07:12:23;7.3;;;6.5;;
50651;SDS011;61429;52.086;5.240;2022-07-05T07:14:10;7.3;;;5.8;;
50651;SDS011;61429;52.086;5.240;2022-07-05T07:15:58;7.6;;;5.8;;
50651;SDS011;61429;52.086;5.240;2022-07-05T07:17:44;7.1;;;5.3;;
50651;SDS011;61429;52.086;5.240;2022-07-05T07:19:30;7.0;;;6.0;;
50651;SDS011;61429;52.086;5.240;2022-07-05T07:23:02;6.3;;;4.91;;
50651;SDS011;61429;52.086;5.240;2022-07-05T07:24:48;5.8;;;5.0;;
50651;SDS011;61429;52.086;5.240;2022-07-05T07:27:02;5.9;;;5.0;;
50651;SDS011;61429;52.086;5.240;2022-07-05T07:28:51;6.1;;;4.8;;
50651;SDS011;61429;52.086;5.240;2022-07-05T07:30:37;6.1;;;4.8;;
50651;SDS011;61429;52.086;5.240;2022-07-05T07:32:25;4.8;;;4.3;;
50651;SDS011;61429;52.086;5.240;2022-07-05T07:34:12;6.2;;;4.0;;
50651;SDS011;61429;52.086;5.240;2022-07-05T07:35:58;5.5;;;4.61;;
50651;SDS011;61429;52.086;5.240;2022-07-05T07:39:33;6.1;;;5.11;;
50651;SDS011;61429;52.086;5.240;2022-07-05T07:41:19;5.9;;;4.7;;
50651;SDS011;61429;52.086;5.240;2022-07-05T07:43:05;4.8;;;4.3;;
50651;SDS011;61429;52.086;5.240;2022-07-05T07:44:51;5.5;;;4.91;;
50651;SDS011;61429;52.086;5.240;2022-07-05T07:46:39;5.8;;;4.5;;
50651;SDS011;61429;52.086;5.240;2022-07-05T07:50:14;5.0;;;4.3;;
50651;SDS011;61429;52.086;5.240;2022-07-05T07:52:01;4.41;;;3.8;;
50651;SDS011;61429;52.086;5.240;2022-07-05T07:53:47;6.6;;;3.6;;
50651;SDS011;61429;52.086;5.240;2022-07-05T07:55:34;3.9;;;3.5;;
50651;SDS011;61429;52.086;5.240;2022-07-05T07:57:20;4.0;;;2.8;;
50651;SDS011;61429;52.086;5.240;2022-07-05T07:59:07;4.0;;;2.8;;
50651;SDS011;61429;52.086;5.240;2022-07-05T08:02:41;5.2;;;3.1;;
50651;SDS011;61429;52.086;5.240;2022-07-05T08:04:27;3.5;;;2.9;;
50651;SDS011;61429;52.086;5.240;2022-07-05T08:06:13;4.91;;;2.8;;
50651;SDS011;61429;52.086;5.240;2022-07-05T08:08:01;3.8;;;2.4;;
50651;SDS011;61429;52.086;5.240;2022-07-05T08:09:49;4.3;;;2.5;;
50651;SDS011;61429;52.086;5.240;2022-07-05T08:11:36;4.5;;;2.31;;
50651;SDS011;61429;52.086;5.240;2022-07-05T08:15:10;4.91;;;2.4;;
50651;SDS011;61429;52.086;5.240;2022-07-05T08:16:56;3.7;;;2.7;;
50651;SDS011;61429;52.086;5.240;2022-07-05T08:21:47;4.91;;;2.7;;
50651;SDS011;61429;52.086;5.240;2022-07-05T08:23:35;5.11;;;2.8;;
50651;SDS011;61429;52.086;5.240;2022-07-05T08:25:22;2.7;;;2.21;;
50651;SDS011;61429;52.086;5.240;2022-07-05T08:27:08;4.2;;;2.8;;
50651;SDS011;61429;52.086;5.240;2022-07-05T08:28:55;4.61;;;3.3;;
50651;SDS011;61429;52.086;5.240;2022-07-05T08:30:42;4.2;;;3.0;;
50651;SDS011;61429;52.086;5.240;2022-07-05T08:32:28;4.5;;;3.2;;
50651;SDS011;61429;52.086;5.240;2022-07-05T08:36:05;4.8;;;3.3;;
50651;SDS011;61429;52.086;5.240;2022-07-05T08:37:53;4.7;;;3.0;;
50651;SDS011;61429;52.086;5.240;2022-07-05T08:39:38;5.5;;;4.0;;
50651;SDS011;61429;52.086;5.240;2022-07-05T08:41:25;4.91;;;4.41;;
50651;SDS011;61429;52.086;5.240;2022-07-05T08:43:12;4.91;;;4.1;;
50651;SDS011;61429;52.086;5.240;2022-07-05T08:46:50;4.91;;;4.1;;
50651;SDS011;61429;52.086;5.240;2022-07-05T08:48:42;4.41;;;3.4;;
50651;SDS011;61429;52.086;5.240;2022-07-05T08:50:33;4.8;;;3.1;;
50651;SDS011;61429;52.086;5.240;2022-07-05T08:52:21;5.7;;;3.8;;
50651;SDS011;61429;52.086;5.240;2022-07-05T08:54:09;5.7;;;3.8;;
50651;SDS011;61429;52.086;5.240;2022-07-05T08:55:58;3.9;;;3.3;;
50651;SDS011;61429;52.086;5.240;2022-07-05T08:57:44;4.3;;;3.3;;
50651;SDS011;61429;52.086;5.240;2022-07-05T09:01:19;4.1;;;2.9;;
50651;SDS011;61429;52.086;5.240;2022-07-05T09:03:07;4.41;;;2.7;;
50651;SDS011;61429;52.086;5.240;2022-07-05T09:04:53;3.7;;;2.5;;
50651;SDS011;61429;52.086;5.240;2022-07-05T09:06:45;3.9;;;2.7;;
50651;SDS011;61429;52.086;5.240;2022-07-05T09:08:34;3.8;;;2.21;;
50651;SDS011;61429;52.086;5.240;2022-07-05T09:10:23;2.5;;;1.8;;
50651;SDS011;61429;52.086;5.240;2022-07-05T09:12:12;3.1;;;1.8;;
50651;SDS011;61429;52.086;5.240;2022-07-05T09:15:51;3.0;;;1.8;;
50651;SDS011;61429;52.086;5.240;2022-07-05T09:17:41;2.21;;;1.7;;
50651;SDS011;61429;52.086;5.240;2022-07-05T09:19:30;3.6;;;1.7;;
50651;SDS011;61429;52.086;5.240;2022-07-05T09:21:17;6.6;;;2.0;;
50651;SDS011;61429;52.086;5.240;2022-07-05T09:23:06;2.31;;;1.8;;
50651;SDS011;61429;52.086;5.240;2022-07-05T09:24:52;3.2;;;1.7;;
50651;SDS011;61429;52.086;5.240;2022-07-05T09:28:28;3.7;;;1.9;;
50651;SDS011;61429;52.086;5.240;2022-07-05T09:30:23;2.21;;;1.6;;
50651;SDS011;61429;52.086;5.240;2022-07-05T09:32:22;3.6;;;1.8;;
50651;SDS011;61429;52.086;5.240;2022-07-05T09:34:10;2.1;;;1.9;;
50651;SDS011;61429;52.086;5.240;2022-07-05T09:35:57;2.7;;;1.7;;
50651;SDS011;61429;52.086;5.240;2022-07-05T09:37:44;4.0;;;1.7;;
50651;SDS011;61429;52.086;5.240;2022-07-05T09:39:38;2.31;;;1.8;;
50651;SDS011;61429;52.086;5.240;2022-07-05T09:43:12;3.0;;;1.7;;
50651;SDS011;61429;52.086;5.240;2022-07-05T09:44:59;2.31;;;1.6;;
50651;SDS011;61429;52.086;5.240;2022-07-05T09:46:47;2.4;;;1.6;;
50651;SDS011;61429;52.086;5.240;2022-07-05T09:48:33;3.0;;;1.8;;
50651;SDS011;61429;52.086;5.240;2022-07-05T09:50:37;3.7;;;1.7;;
50651;SDS011;61429;52.086;5.240;2022-07-05T09:52:27;4.5;;;2.0;;
50651;SDS011;61429;52.086;5.240;2022-07-05T09:54:14;2.6;;;1.8;;
50651;SDS011;61429;52.086;5.240;2022-07-05T09:57:50;2.5;;;1.6;;
50651;SDS011;61429;52.086;5.240;2022-07-05T09:59:37;2.6;;;1.6;;
50651;SDS011;61429;52.086;5.240;2022-07-05T10:01:24;4.5;;;1.7;;
50651;SDS011;61429;52.086;5.240;2022-07-05T10:03:11;2.4;;;1.6;;
50651;SDS011;61429;52.086;5.240;2022-07-05T10:05:07;4.1;;;1.7;;
50651;SDS011;61429;52.086;5.240;2022-07-05T10:06:56;2.1;;;1.5;;
50651;SDS011;61429;52.086;5.240;2022-07-05T10:08:42;2.9;;;1.5;;
50651;SDS011;61429;52.086;5.240;2022-07-05T10:12:18;4.3;;;1.7;;
50651;SDS011;61429;52.086;5.240;2022-07-05T10:14:08;3.2;;;1.6;;
50651;SDS011;61429;52.086;5.240;2022-07-05T10:15:59;4.41;;;1.6;;
50651;SDS011;61429;52.086;5.240;2022-07-05T10:17:48;2.9;;;1.5;;
50651;SDS011;61429;52.086;5.240;2022-07-05T10:19:49;3.7;;;1.6;;
50651;SDS011;61429;52.086;5.240;2022-07-05T10:21:38;2.7;;;1.5;;
50651;SDS011;61429;52.086;5.240;2022-07-05T10:23:25;3.3;;;1.5;;
50651;SDS011;61429;52.086;5.240;2022-07-05T10:27:03;3.4;;;1.5;;
50651;SDS011;61429;52.086;5.240;2022-07-05T10:28:53;3.4;;;1.6;;
50651;SDS011;61429;52.086;5.240;2022-07-05T10:30:40;4.5;;;1.4;;
50651;SDS011;61429;52.086;5.240;2022-07-05T10:32:28;4.0;;;1.6;;
50651;SDS011;61429;52.086;5.240;2022-07-05T10:34:14;3.7;;;1.6;;
50651;SDS011;61429;52.086;5.240;2022-07-05T10:36:03;5.6;;;1.7;;
50651;SDS011;61429;52.086;5.240;2022-07-05T10:39:40;5.2;;;1.6;;
50651;SDS011;61429;52.086;5.240;2022-07-05T10:41:26;3.1;;;1.5;;
50651;SDS011;61429;52.086;5.240;2022-07-05T10:43:14;2.4;;;1.6;;
50651;SDS011;61429;52.086;5.240;2022-07-05T10:45:03;4.0;;;1.4;;
50651;SDS011;61429;52.086;5.240;2022-07-05T10:47:11;2.5;;;1.4;;
50651;SDS011;61429;52.086;5.240;2022-07-05T10:49:09;2.6;;;1.4;;
50651;SDS011;61429;52.086;5.240;2022-07-05T10:50:57;2.7;;;1.3;;
50651;SDS011;61429;52.086;5.240;2022-07-05T10:53:00;3.5;;;1.6;;
50651;SDS011;61429;52.086;5.240;2022-07-05T10:55:17;3.7;;;1.8;;
50651;SDS011;61429;52.086;5.240;2022-07-05T10:57:20;4.1;;;1.6;;
50651;SDS011;61429;52.086;5.240;2022-07-05T10:59:11;2.8;;;1.4;;
50651;SDS011;61429;52.086;5.240;2022-07-05T11:01:32;3.6;;;1.5;;
50651;SDS011;61429;52.086;5.240;2022-07-05T11:03:37;3.1;;;1.6;;
50651;SDS011;61429;52.086;5.240;2022-07-05T11:05:25;3.3;;;1.9;;
50651;SDS011;61429;52.086;5.240;2022-07-05T11:09:15;3.6;;;1.8;;
50651;SDS011;61429;52.086;5.240;2022-07-05T11:11:10;4.3;;;1.7;;
50651;SDS011;61429;52.086;5.240;2022-07-05T11:12:58;3.4;;;1.6;;
50651;SDS011;61429;52.086;5.240;2022-07-05T11:14:45;3.1;;;1.4;;
50651;SDS011;61429;52.086;5.240;2022-07-05T11:16:34;2.5;;;1.6;;
50651;SDS011;61429;52.086;5.240;2022-07-05T11:18:23;3.2;;;1.5;;
50651;SDS011;61429;52.086;5.240;2022-07-05T11:20:11;3.0;;;1.5;;
50651;SDS011;61429;52.086;5.240;2022-07-05T11:22:00;3.3;;;1.7;;
50651;SDS011;61429;52.086;5.240;2022-07-05T11:25:36;3.9;;;1.7;;
50651;SDS011;61429;52.086;5.240;2022-07-05T11:27:26;5.2;;;1.8;;
50651;SDS011;61429;52.086;5.240;2022-07-05T11:29:39;3.7;;;1.7;;
50651;SDS011;61429;52.086;5.240;2022-07-05T11:31:42;4.8;;;1.8;;
50651;SDS011;61429;52.086;5.240;2022-07-05T11:33:32;3.5;;;1.5;;
50651;SDS011;61429;52.086;5.240;2022-07-05T11:35:29;4.7;;;1.7;;
50651;SDS011;61429;52.086;5.240;2022-07-05T11:37:19;6.1;;;1.8;;
50651;SDS011;61429;52.086;5.240;2022-07-05T11:39:09;3.4;;;1.7;;
50651;SDS011;61429;52.086;5.240;2022-07-05T11:41:10;4.5;;;1.6;;
50651;SDS011;61429;52.086;5.240;2022-07-05T11:43:03;3.9;;;1.5;;
50651;SDS011;61429;52.086;5.240;2022-07-05T11:46:37;3.4;;;1.5;;
50651;SDS011;61429;52.086;5.240;2022-07-05T11:48:25;3.1;;;1.5;;
50651;SDS011;61429;52.086;5.240;2022-07-05T11:50:13;4.41;;;1.8;;
50651;SDS011;61429;52.086;5.240;2022-07-05T11:52:01;3.8;;;1.8;;
50651;SDS011;61429;52.086;5.240;2022-07-05T11:53:48;3.6;;;1.7;;
50651;SDS011;61429;52.086;5.240;2022-07-05T11:55:35;3.4;;;1.6;;
50651;SDS011;61429;52.086;5.240;2022-07-05T11:59:19;3.8;;;1.5;;
50651;SDS011;61429;52.086;5.240;2022-07-05T12:02:53;3.6;;;1.6;;
50651;SDS011;61429;52.086;5.240;2022-07-05T12:04:40;3.3;;;1.3;;
50651;SDS011;61429;52.086;5.240;2022-07-05T12:06:39;3.4;;;1.6;;
50651;SDS011;61429;52.086;5.240;2022-07-05T12:08:26;3.3;;;1.6;;
50651;SDS011;61429;52.086;5.240;2022-07-05T12:14:02;3.8;;;1.7;;
50651;SDS011;61429;52.086;5.240;2022-07-05T12:15:49;3.3;;;1.7;;
50651;SDS011;61429;52.086;5.240;2022-07-05T12:17:47;4.0;;;1.5;;
50651;SDS011;61429;52.086;5.240;2022-07-05T12:19:34;3.0;;;1.5;;
50651;SDS011;61429;52.086;5.240;2022-07-05T12:21:21;2.9;;;1.4;;
50651;SDS011;61429;52.086;5.240;2022-07-05T12:23:09;3.8;;;1.4;;
50651;SDS011;61429;52.086;5.240;2022-07-05T12:24:58;2.21;;;1.3;;
50651;SDS011;61429;52.086;5.240;2022-07-05T12:26:45;2.7;;;1.4;;
50651;SDS011;61429;52.086;5.240;2022-07-05T12:30:19;4.1;;;1.4;;
50651;SDS011;61429;52.086;5.240;2022-07-05T12:32:09;2.6;;;1.3;;
50651;SDS011;61429;52.086;5.240;2022-07-05T12:34:07;2.21;;;1.4;;
50651;SDS011;61429;52.086;5.240;2022-07-05T12:36:02;1.9;;;1.0;;
50651;SDS011;61429;52.086;5.240;2022-07-05T12:37:48;2.4;;;1.11;;
50651;SDS011;61429;52.086;5.240;2022-07-05T12:39:35;3.3;;;1.4;;
50651;SDS011;61429;52.086;5.240;2022-07-05T12:43:10;1.5;;;1.11;;
50651;SDS011;61429;52.086;5.240;2022-07-05T12:45:06;2.4;;;1.0;;
50651;SDS011;61429;52.086;5.240;2022-07-05T12:47:03;2.4;;;1.11;;
50651;SDS011;61429;52.086;5.240;2022-07-05T12:48:51;2.9;;;1.11;;
50651;SDS011;61429;52.086;5.240;2022-07-05T12:50:47;2.1;;;1.0;;
50651;SDS011;61429;52.086;5.240;2022-07-05T12:52:53;2.21;;;1.2;;
50651;SDS011;61429;52.086;5.240;2022-07-05T12:58:07;2.1;;;1.0;;
50651;SDS011;61429;52.086;5.240;2022-07-05T12:59:57;2.31;;;1.0;;
50651;SDS011;61429;52.086;5.240;2022-07-05T13:01:45;2.1;;;1.11;;
50651;SDS011;61429;52.086;5.240;2022-07-05T13:03:54;1.7;;;1.0;;
50651;SDS011;61429;52.086;5.240;2022-07-05T13:05:42;1.4;;;1.0;;